Time;durP1;ratioP1;P1;durP2;ratioP2;P2;SDS_P1;SDS_P2;PMS_P1;PMS_P2;Temp;Humidity;BMP_temperature;BMP_pressure;BME280_temperature;BME280_humidity;BME280_pressure;Samples;Min_cycle;Max_cycle;Signal;HPM_P1;HPM_P2
2022/03/01 00:02:22;;;;;;;;;;;0.90;95.10;;;;;;5057475;28;20378;-86
2022/03/01 00:04:48;;;;;;;;;;;0.90;95.20;;;;;;5057157;28;19935;-86
2022/03/01 00:07:13;;;;;;;;;;;0.90;95.20;;;;;;5072971;28;19977;-86
2022/03/01 00:09:39;;;;;;;;;;;0.90;95.00;;;;;;5056133;28;19916;-86
2022/03/01 00:12:05;;;;;;;;;;;1.00;95.00;;;;;;5056029;28;19927;-86
2022/03/01 00:14:30;;;;;;;;;;;1.00;94.40;;;;;;5073779;28;20548;-87
2022/03/01 00:16:56;;;;;;;;;;;1.00;94.40;;;;;;5082575;28;20003;-87
2022/03/01 00:19:22;;;;;;;;;;;1.00;94.20;;;;;;5072447;28;19946;-87
2022/03/01 00:21:47;;;;;;;;;;;1.00;94.50;;;;;;5072359;28;19908;-88
2022/03/01 00:24:13;;;;;;;;;;;0.90;94.80;;;;;;5055192;28;19916;-87
2022/03/01 00:26:39;;;;;;;;;;;0.80;95.00;;;;;;5055337;28;19913;-86
2022/03/01 00:29:04;;;;;;;;;;;0.70;95.20;;;;;;5072382;28;19953;-87
2022/03/01 00:31:30;;;;;;;;;;;0.60;95.40;;;;;;5055657;28;19913;-87
2022/03/01 00:33:56;;;;;;;;;;;0.50;95.80;;;;;;5060696;28;19912;-88
2022/03/01 00:36:22;;;;;;;;;;;0.40;96.20;;;;;;5055224;28;19917;-87
2022/03/01 00:38:47;;;;;;;;;;;0.30;96.50;;;;;;5071718;28;19909;-87
2022/03/01 00:41:13;;;;;;;;;;;0.20;97.10;;;;;;5071704;28;20003;-86
2022/03/01 00:43:38;;;;;;;;;;;0.10;97.30;;;;;;5073071;28;19908;-87
2022/03/01 00:46:04;;;;;;;;;;;0.10;97.80;;;;;;5083001;28;19920;-86
2022/03/01 00:48:30;;;;;;;;;;;0.00;98.20;;;;;;5091779;28;19908;-86
2022/03/01 00:50:58;;;;;;;;;;;0.00;98.80;;;;;;5062148;28;20014;-87
2022/03/01 00:53:23;;;;;;;;;;;0.00;98.90;;;;;;5071572;28;19909;-86
2022/03/01 00:55:49;;;;;;;;;;;-0.10;99.10;;;;;;5054860;28;20008;-87
2022/03/01 00:58:14;;;;;;;;;;;-0.10;99.40;;;;;;5054681;28;20504;-87
2022/03/01 01:00:40;;;;;;;;;;;-0.10;99.40;;;;;;5054824;28;20357;-86
2022/03/01 01:03:06;;;;;;;;;;;-0.10;99.70;;;;;;5059956;28;20344;-85
2022/03/01 01:05:31;;;;;;;;;;;-0.20;99.90;;;;;;5074539;28;19912;-87
2022/03/01 01:07:57;;;;;;;;;;;-0.20;99.90;;;;;;5074480;28;19912;-86
2022/03/01 01:10:23;;;;;;;;;;;-0.20;99.90;;;;;;5067025;28;20438;-87
2022/03/01 01:12:51;;;;;;;;;;;-0.20;99.90;;;;;;5071298;28;19995;-87
2022/03/01 01:15:18;;;;;;;;;;;-0.30;99.90;;;;;;5066608;28;19917;-87
2022/03/01 01:17:44;;;;;;;;;;;-0.30;99.90;;;;;;5051177;28;19913;-86
2022/03/01 01:20:10;;;;;;;;;;;-0.30;99.90;;;;;;5054276;28;20329;-88
2022/03/01 01:22:41;;;;;;;;;;;-0.30;99.90;;;;;;5071179;28;19995;-87
2022/03/01 01:25:07;;;;;;;;;;;-0.30;99.90;;;;;;5073731;28;19912;-88
2022/03/01 01:27:32;;;;;;;;;;;-0.30;99.90;;;;;;5091014;28;19915;-86
2022/03/01 01:29:58;;;;;;;;;;;-0.30;99.90;;;;;;5074024;28;19912;-87
2022/03/01 01:32:24;;;;;;;;;;;-0.20;99.90;;;;;;5054077;28;19973;-87
2022/03/01 01:34:49;;;;;;;;;;;-0.10;99.90;;;;;;5070754;28;20001;-87
2022/03/01 01:37:15;;;;;;;;;;;0.00;99.70;;;;;;5053367;28;20090;-86
2022/03/01 01:39:40;;;;;;;;;;;0.10;99.30;;;;;;5070649;28;19915;-86
2022/03/01 01:42:06;;;;;;;;;;;0.10;98.80;;;;;;5053854;28;19920;-87
2022/03/01 01:44:32;;;;;;;;;;;0.20;98.30;;;;;;5070595;28;20268;-87
2022/03/01 01:46:58;;;;;;;;;;;0.20;98.60;;;;;;5070136;28;19943;-87
2022/03/01 01:49:24;;;;;;;;;;;0.20;98.20;;;;;;5070464;28;19917;-87
2022/03/01 01:51:49;;;;;;;;;;;0.20;98.10;;;;;;5070195;28;19936;-87
2022/03/01 01:54:15;;;;;;;;;;;0.20;97.70;;;;;;5070355;28;19916;-87
2022/03/01 01:56:41;;;;;;;;;;;0.20;97.20;;;;;;5050063;28;19971;-87
2022/03/01 01:59:06;;;;;;;;;;;0.30;97.20;;;;;;5050499;28;19987;-86
2022/03/01 02:01:32;;;;;;;;;;;0.30;97.00;;;;;;5066861;28;19913;-87
2022/03/01 02:03:58;;;;;;;;;;;0.30;96.80;;;;;;5067029;28;19947;-86
2022/03/01 02:06:24;;;;;;;;;;;0.30;96.50;;;;;;5070070;28;19916;-87
2022/03/01 02:08:50;;;;;;;;;;;0.30;96.00;;;;;;5053454;28;19958;-87
2022/03/01 02:11:16;;;;;;;;;;;0.30;95.40;;;;;;5053431;28;20299;-87
2022/03/01 02:13:42;;;;;;;;;;;0.40;95.40;;;;;;5053504;28;19917;-86
2022/03/01 02:16:08;;;;;;;;;;;0.40;95.30;;;;;;5053364;28;19919;-87
2022/03/01 02:18:33;;;;;;;;;;;0.40;95.00;;;;;;5069911;28;19908;-86
2022/03/01 02:20:59;;;;;;;;;;;0.40;94.90;;;;;;5069624;28;20096;-87
2022/03/01 02:23:24;;;;;;;;;;;0.40;94.60;;;;;;5053192;28;19913;-87
2022/03/01 02:25:50;;;;;;;;;;;0.40;94.90;;;;;;5049722;28;20012;-86
2022/03/01 02:28:15;;;;;;;;;;;0.40;94.30;;;;;;5049813;28;19970;-87
2022/03/01 02:30:41;;;;;;;;;;;0.40;94.10;;;;;;5049778;28;20633;-87
2022/03/01 02:33:06;;;;;;;;;;;0.40;94.00;;;;;;5049891;28;19913;-87
2022/03/01 02:35:32;;;;;;;;;;;0.40;94.00;;;;;;5052905;28;20375;-87
2022/03/01 02:37:58;;;;;;;;;;;0.40;93.80;;;;;;5049573;28;19925;-88
2022/03/01 02:40:23;;;;;;;;;;;0.40;93.90;;;;;;5049914;28;19917;-88
2022/03/01 02:42:49;;;;;;;;;;;0.40;93.90;;;;;;5049730;28;19919;-87
2022/03/01 02:45:16;;;;;;;;;;;0.30;93.60;;;;;;5049661;28;19913;-88
2022/03/01 02:47:41;;;;;;;;;;;0.30;94.00;;;;;;5049467;28;19917;-87
2022/03/01 02:50:08;;;;;;;;;;;0.30;94.00;;;;;;5069395;28;20019;-87
2022/03/01 02:52:33;;;;;;;;;;;0.30;94.30;;;;;;5069343;28;19960;-87
2022/03/01 02:54:59;;;;;;;;;;;0.20;94.10;;;;;;5069556;28;19966;-87
2022/03/01 02:57:25;;;;;;;;;;;0.20;94.20;;;;;;5052566;28;19924;-86
2022/03/01 02:59:51;;;;;;;;;;;0.20;94.10;;;;;;5069631;28;19909;-86
2022/03/01 03:02:18;;;;;;;;;;;0.20;94.00;;;;;;5056566;28;19995;-87
2022/03/01 03:04:44;;;;;;;;;;;0.20;94.20;;;;;;5072946;28;19974;-88
2022/03/01 03:07:09;;;;;;;;;;;0.10;94.10;;;;;;5076004;28;19956;-87
2022/03/01 03:09:38;;;;;;;;;;;0.10;93.90;;;;;;5052635;28;19916;-87
2022/03/01 03:12:04;;;;;;;;;;;0.10;94.10;;;;;;5053426;28;19913;-87
2022/03/01 03:14:30;;;;;;;;;;;0.10;94.10;;;;;;5073027;28;19912;-87
2022/03/01 03:16:55;;;;;;;;;;;0.10;94.20;;;;;;5089221;28;20355;-87
2022/03/01 03:19:21;;;;;;;;;;;0.10;94.20;;;;;;5089656;28;19908;-87
2022/03/01 03:21:47;;;;;;;;;;;0.10;94.00;;;;;;5071991;28;19916;-88
2022/03/01 03:24:13;;;;;;;;;;;0.10;93.90;;;;;;5052885;28;19919;-87
2022/03/01 03:26:39;;;;;;;;;;;0.00;94.40;;;;;;5068966;28;19955;-87
2022/03/01 03:29:08;;;;;;;;;;;0.00;95.80;;;;;;5069206;28;19960;-87
2022/03/01 03:31:35;;;;;;;;;;;-0.10;96.00;;;;;;5069335;28;19957;-86
2022/03/01 03:34:00;;;;;;;;;;;-0.20;95.80;;;;;;5072360;28;20298;-87
2022/03/01 03:36:26;;;;;;;;;;;-0.20;95.90;;;;;;5056280;28;19917;-87
2022/03/01 03:38:51;;;;;;;;;;;-0.30;96.10;;;;;;5056130;28;19981;-88
2022/03/01 03:41:17;;;;;;;;;;;-0.30;97.00;;;;;;5073339;28;19912;-87
2022/03/01 03:43:42;;;;;;;;;;;-0.40;96.80;;;;;;5056756;28;19921;-87
2022/03/01 03:46:08;;;;;;;;;;;-0.40;96.40;;;;;;5056182;28;20285;-86
2022/03/01 03:48:33;;;;;;;;;;;-0.40;96.10;;;;;;5056128;28;19920;-88
2022/03/01 03:50:59;;;;;;;;;;;-0.40;96.10;;;;;;5062942;28;19912;-88
2022/03/01 03:53:25;;;;;;;;;;;-0.40;96.40;;;;;;5057976;28;19917;-87
2022/03/01 03:55:50;;;;;;;;;;;-0.40;96.60;;;;;;5072825;28;19909;-87
2022/03/01 03:58:16;;;;;;;;;;;-0.40;96.60;;;;;;5055402;28;19982;-88
2022/03/01 04:00:41;;;;;;;;;;;-0.40;97.10;;;;;;5073909;28;20414;-87
2022/03/01 04:03:07;;;;;;;;;;;-0.40;96.70;;;;;;5052552;28;19913;-87
2022/03/01 04:05:34;;;;;;;;;;;-0.40;97.00;;;;;;5052403;28;19917;-87
2022/03/01 04:08:00;;;;;;;;;;;-0.50;97.80;;;;;;5071905;28;19916;-87
2022/03/01 04:10:26;;;;;;;;;;;-0.50;98.80;;;;;;5071763;28;20279;-86
2022/03/01 04:12:51;;;;;;;;;;;-0.60;99.40;;;;;;5102941;22;20380;-85
2022/03/01 04:15:17;;;;;;;;;;;-0.70;99.70;;;;;;5086390;28;19916;-85
2022/03/01 04:17:43;;;;;;;;;;;-0.90;99.90;;;;;;5089344;28;19931;-85
2022/03/01 04:20:09;;;;;;;;;;;-0.90;99.90;;;;;;5078572;28;19912;-85
2022/03/01 04:22:34;;;;;;;;;;;-1.00;99.90;;;;;;5078268;28;19939;-84
2022/03/01 04:25:01;;;;;;;;;;;-1.10;99.90;;;;;;5035339;28;19936;-84
2022/03/01 04:27:27;;;;;;;;;;;-1.10;99.90;;;;;;5060533;28;19999;-84
2022/03/01 04:29:52;;;;;;;;;;;-1.20;99.90;;;;;;5067708;28;19999;-84
2022/03/01 04:32:18;;;;;;;;;;;-1.20;99.90;;;;;;5050717;28;19927;-84
2022/03/01 04:34:43;;;;;;;;;;;-1.20;99.90;;;;;;5053052;28;19999;-84
2022/03/01 04:37:09;;;;;;;;;;;-1.20;99.90;;;;;;5051892;28;19931;-84
2022/03/01 04:39:35;;;;;;;;;;;-1.10;99.90;;;;;;5052825;28;19909;-84
2022/03/01 04:42:01;;;;;;;;;;;-1.10;99.90;;;;;;5051852;28;19913;-84
2022/03/01 04:44:26;;;;;;;;;;;-1.10;99.90;;;;;;5067612;28;19977;-84
2022/03/01 04:46:53;;;;;;;;;;;-1.10;99.90;;;;;;5071202;28;19923;-84
2022/03/01 04:49:18;;;;;;;;;;;-1.10;99.90;;;;;;5057182;28;19917;-84
2022/03/01 04:51:44;;;;;;;;;;;-1.10;99.90;;;;;;5035926;28;19936;-84
2022/03/01 04:54:10;;;;;;;;;;;-1.10;99.90;;;;;;5037032;28;19916;-84
2022/03/01 04:56:35;;;;;;;;;;;-1.20;99.90;;;;;;5053427;28;19955;-84
2022/03/01 04:59:01;;;;;;;;;;;-1.20;99.90;;;;;;5063745;28;19916;-84
2022/03/01 05:01:26;;;;;;;;;;;-1.20;99.90;;;;;;5036782;28;20476;-84
2022/03/01 05:03:51;;;;;;;;;;;-1.20;99.90;;;;;;5052281;28;19909;-84
2022/03/01 05:06:17;;;;;;;;;;;-1.20;99.90;;;;;;5036609;28;20372;-84
2022/03/01 05:08:42;;;;;;;;;;;-1.20;99.90;;;;;;5036223;28;19913;-84
2022/03/01 05:11:08;;;;;;;;;;;-1.20;99.90;;;;;;5055118;28;19944;-84
2022/03/01 05:13:33;;;;;;;;;;;-1.20;99.90;;;;;;5072554;28;19917;-84
2022/03/01 05:15:59;;;;;;;;;;;-1.20;99.90;;;;;;5049144;28;19921;-84
2022/03/01 05:18:24;;;;;;;;;;;-1.20;99.90;;;;;;5042370;28;19921;-85
2022/03/01 05:20:51;;;;;;;;;;;-1.30;99.90;;;;;;5053745;28;19920;-84
2022/03/01 05:23:17;;;;;;;;;;;-1.30;99.90;;;;;;5066970;28;20317;-84
2022/03/01 05:25:43;;;;;;;;;;;-1.40;99.90;;;;;;5053353;28;19909;-84
2022/03/01 05:28:08;;;;;;;;;;;-1.40;99.90;;;;;;5050584;28;19921;-85
2022/03/01 05:30:34;;;;;;;;;;;-1.50;99.90;;;;;;5035954;28;19923;-84
2022/03/01 05:32:59;;;;;;;;;;;-1.50;99.90;;;;;;5051340;28;20365;-85
2022/03/01 05:35:26;;;;;;;;;;;-1.50;99.90;;;;;;5050902;28;19927;-84
2022/03/01 05:37:54;;;;;;;;;;;-1.50;99.90;;;;;;5051105;28;19984;-84
2022/03/01 05:40:21;;;;;;;;;;;-1.50;99.90;;;;;;5062718;28;20265;-85
2022/03/01 05:42:46;;;;;;;;;;;-1.50;99.90;;;;;;5053884;28;19928;-85
2022/03/01 05:45:12;;;;;;;;;;;-1.40;99.90;;;;;;5070625;28;19916;-85
2022/03/01 05:47:43;;;;;;;;;;;-1.40;99.90;;;;;;5051939;28;19935;-85
2022/03/01 05:50:09;;;;;;;;;;;-1.40;99.90;;;;;;5051339;28;19974;-85
2022/03/01 05:52:34;;;;;;;;;;;-1.40;99.90;;;;;;5050595;28;20015;-84
2022/03/01 05:55:00;;;;;;;;;;;-1.40;99.90;;;;;;5069692;28;19944;-85
2022/03/01 05:57:28;;;;;;;;;;;-1.40;99.90;;;;;;5050504;28;19925;-85
2022/03/01 05:59:54;;;;;;;;;;;-1.30;99.90;;;;;;5051516;28;19920;-84
2022/03/01 06:02:19;;;;;;;;;;;-1.40;99.90;;;;;;5034543;28;19920;-84
2022/03/01 06:04:45;;;;;;;;;;;-1.40;99.90;;;;;;5048493;28;20010;-84
2022/03/01 06:07:10;;;;;;;;;;;-1.40;99.90;;;;;;5070715;28;19916;-84
2022/03/01 06:09:36;;;;;;;;;;;-1.40;99.90;;;;;;5051423;28;19924;-85
2022/03/01 06:12:02;;;;;;;;;;;-1.30;99.90;;;;;;5056342;28;20423;-85
2022/03/01 06:14:27;;;;;;;;;;;-1.30;99.90;;;;;;5054463;28;19917;-84
2022/03/01 06:16:52;;;;;;;;;;;-1.30;99.90;;;;;;5056932;28;20400;-84
2022/03/01 06:19:18;;;;;;;;;;;-1.30;99.90;;;;;;5035652;28;19917;-84
2022/03/01 06:21:43;;;;;;;;;;;-1.20;99.90;;;;;;5033869;28;19917;-84
2022/03/01 06:24:09;;;;;;;;;;;-1.20;99.70;;;;;;5050721;28;19920;-85
2022/03/01 06:26:35;;;;;;;;;;;-1.20;99.80;;;;;;5034035;28;19913;-84
2022/03/01 06:29:00;;;;;;;;;;;-1.20;99.80;;;;;;5057631;28;19920;-85
2022/03/01 06:31:26;;;;;;;;;;;-1.20;99.70;;;;;;5054879;28;19913;-84
2022/03/01 06:33:51;;;;;;;;;;;-1.20;99.70;;;;;;5054635;28;19916;-85
2022/03/01 06:36:16;;;;;;;;;;;-1.20;99.70;;;;;;5044959;28;19963;-85
2022/03/01 06:38:42;;;;;;;;;;;-1.20;99.30;;;;;;5047350;28;19917;-85
2022/03/01 06:41:07;;;;;;;;;;;-1.30;99.40;;;;;;5056572;28;19928;-85
2022/03/01 06:43:33;;;;;;;;;;;-1.30;99.20;;;;;;5047126;28;19916;-84
2022/03/01 06:45:59;;;;;;;;;;;-1.30;99.80;;;;;;5057223;28;20362;-86
2022/03/01 06:48:27;;;;;;;;;;;-1.30;99.90;;;;;;5073829;28;20363;-85
2022/03/01 06:50:53;;;;;;;;;;;-1.20;99.90;;;;;;5073327;28;19920;-85
2022/03/01 06:53:19;;;;;;;;;;;-1.20;99.90;;;;;;5052108;28;19980;-84
2022/03/01 06:55:44;;;;;;;;;;;-1.20;99.90;;;;;;5055525;28;20405;-84
2022/03/01 06:58:11;;;;;;;;;;;-1.20;99.90;;;;;;5054094;28;19920;-84
2022/03/01 07:00:36;;;;;;;;;;;-1.10;99.90;;;;;;5064688;28;19916;-85
2022/03/01 07:03:02;;;;;;;;;;;-1.10;99.90;;;;;;5055839;28;19946;-84
2022/03/01 07:05:27;;;;;;;;;;;-1.10;99.90;;;;;;5072562;28;19916;-85
2022/03/01 07:07:53;;;;;;;;;;;-1.00;99.90;;;;;;5070788;28;19917;-85
2022/03/01 07:10:18;;;;;;;;;;;-1.00;99.90;;;;;;5046833;28;19916;-84
2022/03/01 07:12:45;;;;;;;;;;;-0.90;99.90;;;;;;5078827;28;19925;-84
2022/03/01 07:15:10;;;;;;;;;;;-0.80;99.90;;;;;;5059801;28;19986;-84
2022/03/01 07:17:36;;;;;;;;;;;-0.70;98.70;;;;;;5060186;28;19913;-84
2022/03/01 07:20:03;;;;;;;;;;;-0.60;98.10;;;;;;5061899;28;19917;-85
2022/03/01 07:22:28;;;;;;;;;;;-0.50;97.20;;;;;;5062384;28;19912;-84
2022/03/01 07:24:54;;;;;;;;;;;-0.30;96.10;;;;;;5062418;28;19916;-85
2022/03/01 07:27:19;;;;;;;;;;;-0.20;95.20;;;;;;5074759;28;20019;-85
2022/03/01 07:29:45;;;;;;;;;;;-0.10;94.10;;;;;;5050002;28;19944;-85
2022/03/01 07:32:10;;;;;;;;;;;0.00;93.60;;;;;;5083562;28;20284;-85
2022/03/01 07:34:36;;;;;;;;;;;0.10;93.50;;;;;;5080231;28;19970;-85
2022/03/01 07:37:02;;;;;;;;;;;0.20;93.60;;;;;;5071753;28;19924;-85
2022/03/01 07:39:28;;;;;;;;;;;0.30;93.50;;;;;;5044936;28;19917;-85
2022/03/01 07:41:54;;;;;;;;;;;0.40;93.20;;;;;;5061852;28;20436;-84
2022/03/01 07:44:19;;;;;;;;;;;0.40;92.50;;;;;;5041770;28;19920;-85
2022/03/01 07:46:45;;;;;;;;;;;0.50;92.60;;;;;;5055601;28;20289;-85
2022/03/01 07:49:10;;;;;;;;;;;0.50;93.20;;;;;;5047521;28;19977;-85
2022/03/01 07:51:36;;;;;;;;;;;0.50;93.50;;;;;;5046300;28;19925;-85
2022/03/01 07:54:02;;;;;;;;;;;0.60;92.50;;;;;;5055293;28;19909;-84
2022/03/01 07:56:28;;;;;;;;;;;0.60;92.50;;;;;;5055323;28;19935;-85
2022/03/01 07:58:53;;;;;;;;;;;0.60;91.40;;;;;;5039973;28;19924;-85
2022/03/01 08:01:19;;;;;;;;;;;0.70;92.10;;;;;;5054906;28;19982;-85
2022/03/01 08:03:45;;;;;;;;;;;0.80;91.00;;;;;;5060893;28;19912;-85
2022/03/01 08:06:11;;;;;;;;;;;0.90;90.90;;;;;;5057720;28;19915;-85
2022/03/01 08:08:37;;;;;;;;;;;1.00;91.60;;;;;;5036846;28;20019;-84
2022/03/01 08:11:04;;;;;;;;;;;1.00;91.10;;;;;;5055525;28;20238;-84
2022/03/01 08:13:31;;;;;;;;;;;1.10;91.00;;;;;;5062591;28;20015;-84
2022/03/01 08:15:56;;;;;;;;;;;1.20;90.10;;;;;;5053945;28;19958;-85
2022/03/01 08:18:22;;;;;;;;;;;1.30;89.40;;;;;;5070312;28;19916;-84
2022/03/01 08:20:47;;;;;;;;;;;1.30;89.20;;;;;;5074384;28;20334;-85
2022/03/01 08:23:13;;;;;;;;;;;1.50;86.00;;;;;;5073751;28;20311;-85
2022/03/01 08:25:38;;;;;;;;;;;1.50;84.30;;;;;;5072977;28;19970;-85
2022/03/01 08:28:04;;;;;;;;;;;1.60;85.40;;;;;;5057233;28;19951;-85
2022/03/01 08:30:29;;;;;;;;;;;1.70;83.60;;;;;;5073495;28;20022;-85
2022/03/01 08:32:55;;;;;;;;;;;1.70;83.10;;;;;;5065972;28;19913;-86
2022/03/01 08:35:21;;;;;;;;;;;1.80;87.60;;;;;;5074103;28;19913;-85
2022/03/01 08:37:48;;;;;;;;;;;1.90;86.50;;;;;;5056439;28;20308;-86
2022/03/01 08:40:14;;;;;;;;;;;2.00;81.80;;;;;;5072879;28;19931;-86
2022/03/01 08:42:40;;;;;;;;;;;2.20;82.40;;;;;;5072130;28;20430;-85
2022/03/01 08:45:06;;;;;;;;;;;2.30;81.70;;;;;;5072974;28;20036;-84
2022/03/01 08:47:32;;;;;;;;;;;2.40;79.50;;;;;;5072892;28;19912;-87
2022/03/01 08:49:57;;;;;;;;;;;2.50;78.70;;;;;;5074886;28;20013;-85
2022/03/01 08:52:23;;;;;;;;;;;2.60;76.80;;;;;;5064692;28;20353;-85
2022/03/01 08:54:48;;;;;;;;;;;2.60;73.30;;;;;;5054785;28;20368;-85
2022/03/01 08:57:14;;;;;;;;;;;2.70;73.20;;;;;;5052066;28;19935;-85
2022/03/01 08:59:40;;;;;;;;;;;2.80;73.90;;;;;;5035582;28;20341;-85
2022/03/01 09:02:06;;;;;;;;;;;2.80;72.10;;;;;;5043131;28;19991;-85
2022/03/01 09:04:31;;;;;;;;;;;2.80;71.90;;;;;;5055073;28;19917;-86
2022/03/01 09:06:57;;;;;;;;;;;2.80;73.00;;;;;;5056673;28;19913;-85
2022/03/01 09:09:22;;;;;;;;;;;2.90;73.20;;;;;;5037163;28;19920;-84
2022/03/01 09:11:47;;;;;;;;;;;3.00;71.10;;;;;;5041527;28;19920;-85
2022/03/01 09:14:13;;;;;;;;;;;3.00;72.00;;;;;;5056786;28;20003;-86
2022/03/01 09:16:39;;;;;;;;;;;3.00;76.90;;;;;;5056493;28;20296;-85
2022/03/01 09:19:05;;;;;;;;;;;3.20;74.90;;;;;;5068158;28;19908;-85
2022/03/01 09:21:30;;;;;;;;;;;3.30;72.40;;;;;;5054339;28;19917;-86
2022/03/01 09:23:56;;;;;;;;;;;3.30;71.00;;;;;;5053314;28;19909;-86
2022/03/01 09:26:21;;;;;;;;;;;3.40;70.00;;;;;;5036983;28;19913;-85
2022/03/01 09:28:47;;;;;;;;;;;3.40;68.20;;;;;;5053339;28;20353;-85
2022/03/01 09:31:12;;;;;;;;;;;3.40;68.50;;;;;;5050963;28;19983;-84
2022/03/01 09:33:42;;;;;;;;;;;3.40;68.80;;;;;;5035193;28;19912;-86
2022/03/01 09:36:11;;;;;;;;;;;3.40;70.20;;;;;;5052466;28;19924;-86
2022/03/01 09:38:37;;;;;;;;;;;3.40;72.80;;;;;;5051884;28;19924;-85
2022/03/01 09:41:02;;;;;;;;;;;3.30;71.10;;;;;;5051725;28;20362;-85
2022/03/01 09:43:28;;;;;;;;;;;3.30;70.00;;;;;;5052976;28;19970;-86
2022/03/01 09:45:53;;;;;;;;;;;3.30;68.80;;;;;;5052437;28;19944;-85
2022/03/01 09:48:19;;;;;;;;;;;3.30;68.10;;;;;;5035701;28;20369;-86
2022/03/01 09:50:45;;;;;;;;;;;3.30;70.20;;;;;;5051850;28;19912;-85
2022/03/01 09:53:11;;;;;;;;;;;3.40;70.70;;;;;;5052512;28;19928;-86
2022/03/01 09:55:36;;;;;;;;;;;3.50;69.10;;;;;;5053881;28;20364;-85
2022/03/01 09:58:02;;;;;;;;;;;3.60;68.80;;;;;;5052858;28;19916;-85
2022/03/01 10:00:28;;;;;;;;;;;3.70;68.00;;;;;;5052695;28;19972;-85
2022/03/01 10:02:57;;;;;;;;;;;3.80;66.90;;;;;;5035440;28;19928;-85
2022/03/01 10:05:36;;;;;;;;;;;3.90;66.10;;;;;;5055304;28;19967;-85
2022/03/01 10:08:06;;;;;;;;;;;4.00;66.60;;;;;;5066561;28;20369;-86
2022/03/01 10:10:58;;;;;;;;;;;4.10;64.80;;;;;;5056169;28;19991;-86
2022/03/01 10:13:27;;;;;;;;;;;4.20;65.20;;;;;;5084526;22;20394;-87
2022/03/01 10:16:03;;;;;;;;;;;4.30;63.50;;;;;;5069337;28;20359;-87
2022/03/01 10:18:30;;;;;;;;;;;4.30;61.80;;;;;;5065359;28;19920;-87
2022/03/01 10:21:00;;;;;;;;;;;4.40;62.00;;;;;;5070168;28;20283;-87
2022/03/01 10:23:26;;;;;;;;;;;4.40;60.40;;;;;;5069697;28;19915;-87
2022/03/01 10:25:51;;;;;;;;;;;4.60;60.00;;;;;;5052977;28;19916;-86
2022/03/01 10:28:17;;;;;;;;;;;4.70;59.10;;;;;;5054303;28;19942;-87
2022/03/01 10:30:43;;;;;;;;;;;4.70;57.90;;;;;;5052989;28;19949;-87
2022/03/01 10:33:10;;;;;;;;;;;4.80;57.60;;;;;;5070221;28;19913;-87
2022/03/01 10:35:37;;;;;;;;;;;4.90;58.00;;;;;;5069933;28;19995;-87
2022/03/01 10:38:03;;;;;;;;;;;4.90;57.20;;;;;;5052899;28;19920;-87
2022/03/01 10:40:29;;;;;;;;;;;5.00;57.70;;;;;;5069558;28;20292;-87
2022/03/01 10:42:59;;;;;;;;;;;5.00;56.50;;;;;;5069686;28;19912;-87
2022/03/01 10:45:35;;;;;;;;;;;5.00;56.20;;;;;;5063521;28;20207;-87
2022/03/01 10:48:03;;;;;;;;;;;5.00;55.90;;;;;;5061483;28;20344;-87
2022/03/01 10:50:28;;;;;;;;;;;5.10;55.60;;;;;;5052992;28;19912;-87
2022/03/01 10:52:54;;;;;;;;;;;5.20;55.90;;;;;;5074034;28;19915;-87
2022/03/01 10:55:24;;;;;;;;;;;5.40;55.60;;;;;;5089458;28;19915;-87
2022/03/01 10:57:57;;;;;;;;;;;5.60;55.60;;;;;;5089322;28;19928;-87
2022/03/01 11:00:22;;;;;;;;;;;5.70;54.70;;;;;;5072746;28;20306;-87
2022/03/01 11:02:48;;;;;;;;;;;5.90;55.40;;;;;;5073109;28;19918;-87
2022/03/01 11:05:13;;;;;;;;;;;6.00;54.30;;;;;;5071081;28;19912;-87
2022/03/01 11:07:39;;;;;;;;;;;6.10;53.00;;;;;;5080851;28;20412;-88
2022/03/01 11:10:06;;;;;;;;;;;6.20;53.20;;;;;;5069178;28;19966;-88
2022/03/01 11:12:34;;;;;;;;;;;6.30;54.00;;;;;;5054566;28;21436;-87
2022/03/01 11:15:09;;;;;;;;;;;6.40;52.00;;;;;;5089460;28;19912;-87
2022/03/01 11:17:38;;;;;;;;;;;6.50;51.80;;;;;;5088890;28;19927;-87
2022/03/01 11:20:04;;;;;;;;;;;6.60;50.80;;;;;;5070056;28;19916;-87
2022/03/01 11:22:32;;;;;;;;;;;6.60;50.00;;;;;;5068969;28;20363;-87
2022/03/01 11:24:58;;;;;;;;;;;6.60;50.50;;;;;;5069409;28;20253;-87
2022/03/01 11:27:24;;;;;;;;;;;6.70;50.60;;;;;;5052455;28;19912;-87
2022/03/01 11:29:50;;;;;;;;;;;6.70;50.40;;;;;;5085951;28;19967;-87
2022/03/01 11:32:18;;;;;;;;;;;6.70;50.30;;;;;;5072401;28;20590;-83
2022/03/01 11:34:44;;;;;;;;;;;6.80;50.00;;;;;;5089102;28;19908;-83
2022/03/01 11:37:22;;;;;;;;;;;6.80;50.00;;;;;;5089047;28;19923;-83
2022/03/01 11:39:55;;;;;;;;;;;6.90;49.90;;;;;;5072622;28;20282;-83
2022/03/01 11:42:21;;;;;;;;;;;7.00;50.10;;;;;;5087229;28;19912;-84
2022/03/01 11:44:54;;;;;;;;;;;6.90;50.00;;;;;;5083789;28;19908;-84
2022/03/01 11:47:30;;;;;;;;;;;6.90;51.50;;;;;;5072217;28;19934;-83
2022/03/01 11:49:55;;;;;;;;;;;7.00;50.40;;;;;;5072871;28;19919;-84
2022/03/01 11:52:23;;;;;;;;;;;7.00;50.20;;;;;;5072444;28;19912;-84
2022/03/01 11:54:49;;;;;;;;;;;7.10;49.50;;;;;;5092372;28;19999;-83
2022/03/01 11:57:15;;;;;;;;;;;7.20;49.20;;;;;;5092917;28;19912;-83
2022/03/01 11:59:42;;;;;;;;;;;7.20;49.00;;;;;;5093030;28;20382;-83
2022/03/01 12:02:07;;;;;;;;;;;7.10;50.20;;;;;;5093035;28;20259;-84
2022/03/01 12:04:33;;;;;;;;;;;7.00;50.50;;;;;;5076082;28;20050;-83
2022/03/01 12:06:59;;;;;;;;;;;6.90;49.80;;;;;;5076035;28;19912;-83
2022/03/01 12:09:26;;;;;;;;;;;6.80;50.80;;;;;;5076791;28;20362;-82
2022/03/01 12:12:11;;;;;;;;;;;6.70;51.70;;;;;;5092907;28;20425;-83
2022/03/01 12:14:38;;;;;;;;;;;6.70;50.60;;;;;;5092274;28;19923;-83
2022/03/01 12:17:15;;;;;;;;;;;6.70;50.90;;;;;;5092519;28;19930;-83
2022/03/01 12:19:41;;;;;;;;;;;6.70;50.80;;;;;;5092617;28;19998;-84
2022/03/01 12:22:07;;;;;;;;;;;6.80;50.90;;;;;;5092463;28;19986;-84
2022/03/01 12:24:33;;;;;;;;;;;6.80;50.90;;;;;;5075614;28;20366;-83
2022/03/01 12:26:59;;;;;;;;;;;6.80;51.30;;;;;;5075522;28;19912;-83
2022/03/01 12:29:26;;;;;;;;;;;6.70;51.10;;;;;;5075695;28;19957;-84
2022/03/01 12:31:56;;;;;;;;;;;6.70;51.80;;;;;;5092363;28;19916;-84
2022/03/01 12:34:28;;;;;;;;;;;6.80;52.50;;;;;;5092365;28;19916;-83
2022/03/01 12:36:55;;;;;;;;;;;6.70;51.60;;;;;;5092088;28;19912;-84
2022/03/01 12:39:21;;;;;;;;;;;6.70;50.80;;;;;;5075487;28;20516;-83
2022/03/01 12:41:47;;;;;;;;;;;6.60;50.60;;;;;;5092243;28;19915;-83
2022/03/01 12:44:13;;;;;;;;;;;6.60;51.20;;;;;;5092050;28;19961;-83
2022/03/01 12:46:41;;;;;;;;;;;6.70;50.70;;;;;;5091945;28;19948;-83
2022/03/01 12:49:08;;;;;;;;;;;6.70;50.00;;;;;;5092110;28;19908;-83
2022/03/01 12:51:34;;;;;;;;;;;6.70;50.10;;;;;;5075212;28;19916;-83
2022/03/01 12:54:01;;;;;;;;;;;6.60;51.00;;;;;;5091896;28;19915;-83
2022/03/01 12:56:28;;;;;;;;;;;6.60;50.40;;;;;;5091861;28;19916;-83
2022/03/01 12:59:13;;;;;;;;;;;6.70;50.10;;;;;;5091830;28;19908;-83
2022/03/01 13:01:40;;;;;;;;;;;6.70;49.20;;;;;;5091555;28;19912;-83
2022/03/01 13:04:09;;;;;;;;;;;6.70;50.30;;;;;;5075082;28;19968;-83
2022/03/01 13:06:35;;;;;;;;;;;6.80;49.60;;;;;;5091270;28;19908;-83
2022/03/01 13:09:01;;;;;;;;;;;6.70;50.50;;;;;;5092983;28;20528;-84
2022/03/01 13:11:27;;;;;;;;;;;6.80;50.50;;;;;;5092835;28;19918;-83
2022/03/01 13:13:57;;;;;;;;;;;6.80;50.50;;;;;;5091661;28;20046;-83
2022/03/01 13:16:29;;;;;;;;;;;6.80;51.00;;;;;;5075043;28;19916;-83
2022/03/01 13:19:03;;;;;;;;;;;6.90;50.30;;;;;;5074813;28;19922;-83
2022/03/01 13:21:36;;;;;;;;;;;7.00;49.40;;;;;;5074916;28;19919;-83
2022/03/01 13:24:12;;;;;;;;;;;7.00;48.80;;;;;;5091612;28;19919;-83
2022/03/01 13:26:38;;;;;;;;;;;7.00;46.60;;;;;;5091442;28;19908;-83
2022/03/01 13:29:08;;;;;;;;;;;7.00;47.00;;;;;;5091834;28;20006;-83
2022/03/01 13:31:33;;;;;;;;;;;7.10;47.50;;;;;;5091428;28;19908;-83
2022/03/01 13:33:59;;;;;;;;;;;7.10;49.90;;;;;;5074619;28;20608;-83
2022/03/01 13:36:26;;;;;;;;;;;7.10;49.80;;;;;;5091542;28;19908;-83
2022/03/01 13:39:15;;;;;;;;;;;7.20;49.50;;;;;;5091320;28;20327;-83
2022/03/01 13:41:42;;;;;;;;;;;7.30;48.80;;;;;;5069709;28;20007;-83
2022/03/01 13:44:24;;;;;;;;;;;7.30;47.90;;;;;;5074426;28;20031;-83
2022/03/01 13:46:53;;;;;;;;;;;7.30;46.40;;;;;;5091125;28;20439;-83
2022/03/01 13:49:23;;;;;;;;;;;7.40;46.20;;;;;;5091392;28;19960;-82
2022/03/01 13:51:49;;;;;;;;;;;7.40;45.70;;;;;;5091111;28;20285;-83
2022/03/01 13:54:14;;;;;;;;;;;7.40;46.60;;;;;;5091081;28;20014;-83
2022/03/01 13:56:45;;;;;;;;;;;7.40;47.20;;;;;;5073952;28;19920;-83
2022/03/01 13:59:18;;;;;;;;;;;7.50;48.10;;;;;;5091154;28;20435;-83
2022/03/01 14:01:47;;;;;;;;;;;7.50;48.00;;;;;;5091148;28;20329;-83
2022/03/01 14:04:13;;;;;;;;;;;7.50;49.30;;;;;;5090938;28;20344;-83
2022/03/01 14:06:46;;;;;;;;;;;7.60;48.20;;;;;;5073745;28;19916;-83
2022/03/01 14:09:13;;;;;;;;;;;7.60;47.80;;;;;;5090756;28;19919;-83
2022/03/01 14:11:38;;;;;;;;;;;7.70;47.20;;;;;;5090701;28;19912;-83
2022/03/01 14:14:13;;;;;;;;;;;7.70;47.70;;;;;;5090819;28;20328;-83
2022/03/01 14:16:42;;;;;;;;;;;7.70;47.50;;;;;;5090189;28;19912;-83
2022/03/01 14:19:08;;;;;;;;;;;7.80;47.90;;;;;;5090444;28;19924;-83
2022/03/01 14:21:34;;;;;;;;;;;7.80;47.80;;;;;;5090240;28;19908;-83
2022/03/01 14:24:00;;;;;;;;;;;7.90;46.50;;;;;;5090502;28;19908;-83